Time;durP1;ratioP1;P1;durP2;ratioP2;P2;SDS_P1;SDS_P2;PMS_P1;PMS_P2;Temp;Humidity;BMP_temperature;BMP_pressure;BME280_temperature;BME280_humidity;BME280_pressure;Samples;Min_cycle;Max_cycle;Signal;HPM_P1;HPM_P2
2023/05/06 00:00:53;;;;;;;11.00;8.40;;;12.50;99.90;;;;;;4992014;28;20055;-60
2023/05/06 00:03:20;;;;;;;12.18;9.20;;;12.50;99.90;;;;;;4972964;28;20553;-60
2023/05/06 00:05:48;;;;;;;13.13;8.98;;;12.40;99.90;;;;;;4973410;28;20042;-59
2023/05/06 00:08:15;;;;;;;10.77;7.95;;;12.40;99.90;;;;;;4973135;28;20065;-60
2023/05/06 00:10:42;;;;;;;13.50;8.35;;;12.40;99.90;;;;;;4991003;28;20560;-60
2023/05/06 00:13:09;;;;;;;12.20;8.25;;;12.40;99.90;;;;;;4969891;28;20054;-60
2023/05/06 00:15:37;;;;;;;11.48;8.65;;;12.30;99.90;;;;;;4990473;28;20085;-61
2023/05/06 00:18:04;;;;;;;11.45;8.00;;;12.30;99.90;;;;;;4957680;28;20558;-60
2023/05/06 00:20:31;;;;;;;13.50;9.27;;;12.30;99.90;;;;;;4974334;28;20109;-60
2023/05/06 00:22:58;;;;;;;13.32;8.77;;;12.20;99.90;;;;;;4991171;28;20498;-61
2023/05/06 00:25:25;;;;;;;11.00;8.23;;;12.20;99.90;;;;;;4995406;28;20461;-60
2023/05/06 00:27:53;;;;;;;13.15;9.15;;;12.10;99.90;;;;;;4995512;28;20046;-60
2023/05/06 00:30:20;;;;;;;11.80;9.18;;;12.10;99.90;;;;;;4977333;28;20466;-61
2023/05/06 00:32:48;;;;;;;13.40;10.30;;;12.00;99.90;;;;;;4995376;28;20050;-61
2023/05/06 00:35:15;;;;;;;15.43;9.90;;;11.90;99.90;;;;;;4995326;28;20090;-60
2023/05/06 00:37:45;;;;;;;13.52;10.00;;;11.80;99.90;;;;;;4976968;28;20050;-60
2023/05/06 00:40:12;;;;;;;13.43;9.63;;;11.80;99.90;;;;;;4959585;28;20059;-60
2023/05/06 00:42:39;;;;;;;14.05;10.18;;;11.80;99.90;;;;;;4959658;28;20294;-61
2023/05/06 00:45:07;;;;;;;13.57;10.80;;;11.80;99.90;;;;;;4976354;28;20098;-61
2023/05/06 00:47:34;;;;;;;14.63;10.05;;;11.70;99.90;;;;;;4992764;28;20108;-60
2023/05/06 00:50:02;;;;;;;17.02;9.68;;;11.70;99.90;;;;;;4977328;28;20058;-61
2023/05/06 00:52:30;;;;;;;15.48;10.15;;;11.70;99.90;;;;;;4978214;28;20089;-61
2023/05/06 00:54:57;;;;;;;14.80;9.50;;;11.70;99.90;;;;;;4959255;28;20046;-59
2023/05/06 00:57:24;;;;;;;14.65;10.32;;;11.70;99.90;;;;;;4974921;28;20097;-60
2023/05/06 00:59:50;;;;;;;15.20;10.85;;;11.80;99.90;;;;;;4977252;28;20134;-61
2023/05/06 01:02:17;;;;;;;17.45;10.65;;;11.80;99.90;;;;;;4977479;28;20050;-60
2023/05/06 01:04:44;;;;;;;16.05;11.07;;;11.80;99.90;;;;;;4994145;28;20054;-61
2023/05/06 01:07:23;;;;;;;16.92;10.80;;;11.90;99.90;;;;;;4977466;28;20057;-60
2023/05/06 01:09:55;;;;;;;16.80;10.85;;;11.90;99.90;;;;;;4994580;28;20097;-61
2023/05/06 01:12:29;;;;;;;18.17;10.85;;;11.90;99.90;;;;;;4994375;28;20097;-61
2023/05/06 01:15:05;;;;;;;15.70;11.15;;;12.00;99.90;;;;;;4977128;28;20081;-61
2023/05/06 01:17:35;;;;;;;14.93;10.38;;;12.00;99.90;;;;;;4977232;28;20116;-61
2023/05/06 01:20:10;;;;;;;14.77;10.05;;;12.00;99.90;;;;;;4975505;28;20495;-61
2023/05/06 01:22:39;;;;;;;14.35;9.93;;;12.00;99.90;;;;;;4992458;28;20121;-59
2023/05/06 01:25:17;;;;;;;14.07;10.27;;;12.00;99.90;;;;;;4992565;28;20081;-60
2023/05/06 01:27:44;;;;;;;12.52;9.70;;;12.10;99.90;;;;;;4993496;28;20564;-60
2023/05/06 01:30:12;;;;;;;14.10;10.20;;;12.10;99.90;;;;;;4976632;28;20081;-60
2023/05/06 01:32:49;;;;;;;15.20;10.40;;;12.10;99.90;;;;;;4975405;28;20097;-60
2023/05/06 01:35:21;;;;;;;14.63;9.80;;;12.10;99.90;;;;;;4973212;28;20100;-61
2023/05/06 01:37:56;;;;;;;15.07;10.70;;;12.10;99.90;;;;;;4976361;28;20388;-60
2023/05/06 01:40:27;;;;;;;14.73;11.55;;;12.00;99.90;;;;;;4976213;28;20054;-60
2023/05/06 01:42:55;;;;;;;15.73;10.30;;;12.00;99.90;;;;;;4976567;28;20050;-60
2023/05/06 01:45:23;;;;;;;13.85;9.90;;;12.00;99.90;;;;;;4994001;28;20071;-60
2023/05/06 01:47:50;;;;;;;16.58;11.85;;;12.00;99.90;;;;;;4993100;28;20054;-61
2023/05/06 01:50:17;;;;;;;15.93;10.90;;;12.00;99.90;;;;;;4993855;28;20050;-61
2023/05/06 01:52:44;;;;;;;16.42;11.88;;;11.90;99.90;;;;;;4993893;28;20476;-61
2023/05/06 01:55:11;;;;;;;14.73;11.23;;;11.90;99.90;;;;;;4992979;28;20046;-60
2023/05/06 01:57:39;;;;;;;14.95;11.10;;;11.80;99.90;;;;;;4993525;28;20054;-61
2023/05/06 02:00:08;;;;;;;17.00;11.00;;;11.70;99.90;;;;;;4993760;28;20096;-61
2023/05/06 02:02:35;;;;;;;15.27;10.73;;;11.60;99.90;;;;;;4993442;28;20043;-61
2023/05/06 02:05:02;;;;;;;15.50;10.43;;;11.60;99.90;;;;;;4993340;28;20096;-60
2023/05/06 02:07:29;;;;;;;15.40;11.27;;;11.50;99.90;;;;;;4993514;28;20046;-62
2023/05/06 02:09:55;;;;;;;14.10;11.25;;;11.40;99.90;;;;;;4992812;28;20051;-61
2023/05/06 02:12:22;;;;;;;15.43;10.88;;;11.40;99.90;;;;;;4976105;28;20458;-61
2023/05/06 02:14:50;;;;;;;16.67;12.15;;;11.30;99.90;;;;;;4992792;28;20050;-61
2023/05/06 02:17:17;;;;;;;15.65;11.05;;;11.30;99.90;;;;;;4991950;28;20046;-61
2023/05/06 02:19:44;;;;;;;15.25;11.13;;;11.20;99.90;;;;;;4993089;28;20398;-60
2023/05/06 02:22:11;;;;;;;17.38;11.88;;;11.20;99.90;;;;;;4975560;28;20058;-60
2023/05/06 02:24:38;;;;;;;16.58;11.30;;;11.10;99.90;;;;;;4993067;28;20100;-60
2023/05/06 02:27:05;;;;;;;15.68;11.32;;;11.10;99.90;;;;;;4993141;28;20046;-60
2023/05/06 02:29:32;;;;;;;16.90;11.43;;;11.10;99.90;;;;;;4992443;28;20072;-61
2023/05/06 02:32:00;;;;;;;19.60;11.65;;;11.00;99.90;;;;;;4992828;28;20190;-60
2023/05/06 02:34:27;;;;;;;17.20;11.95;;;11.00;99.90;;;;;;4993075;28;20052;-59
2023/05/06 02:36:53;;;;;;;18.67;11.90;;;11.00;99.90;;;;;;4973327;28;20054;-60
2023/05/06 02:39:20;;;;;;;14.68;11.20;;;11.00;99.90;;;;;;4992542;28;20082;-61
2023/05/06 02:41:47;;;;;;;18.35;11.95;;;11.00;99.90;;;;;;4975867;28;20046;-61
2023/05/06 02:44:14;;;;;;;14.90;11.50;;;11.00;99.90;;;;;;4974623;28;20050;-61
2023/05/06 02:46:42;;;;;;;15.35;11.95;;;11.00;99.90;;;;;;4974612;28;20054;-60
2023/05/06 02:49:10;;;;;;;17.75;12.50;;;11.10;99.90;;;;;;4975206;28;20116;-60
2023/05/06 02:51:37;;;;;;;20.90;12.50;;;11.00;99.90;;;;;;4992479;28;20046;-61
2023/05/06 02:54:04;;;;;;;15.73;11.25;;;11.00;99.90;;;;;;4992490;28;20043;-61
2023/05/06 02:56:31;;;;;;;15.00;11.43;;;11.00;99.90;;;;;;4992973;28;20048;-61
2023/05/06 02:58:58;;;;;;;17.52;11.98;;;11.10;99.90;;;;;;4991643;28;20081;-59
2023/05/06 03:01:25;;;;;;;21.58;12.38;;;11.10;99.90;;;;;;4975424;28;20112;-60
2023/05/06 03:03:52;;;;;;;16.55;12.15;;;11.00;99.90;;;;;;4992125;28;20053;-61
2023/05/06 03:06:20;;;;;;;16.52;12.38;;;11.10;99.90;;;;;;4975048;28;20054;-60
2023/05/06 03:08:47;;;;;;;17.10;11.50;;;11.10;99.90;;;;;;4956473;28;20522;-60
2023/05/06 03:11:13;;;;;;;17.40;11.88;;;11.00;99.90;;;;;;4948737;28;20058;-62
2023/05/06 03:13:40;;;;;;;14.27;10.65;;;10.90;99.90;;;;;;4990632;28;20105;-60
2023/05/06 03:16:12;;;;;;;13.10;9.82;;;10.90;99.90;;;;;;4975168;28;20368;-60
2023/05/06 03:18:40;;;;;;;13.98;9.13;;;10.80;99.90;;;;;;4973611;28;20081;-60
2023/05/06 03:21:07;;;;;;;13.52;10.38;;;10.80;99.90;;;;;;4992261;28;20046;-60
2023/05/06 03:23:35;;;;;;;15.60;11.20;;;10.70;99.90;;;;;;4992244;28;20255;-62
2023/05/06 03:26:02;;;;;;;17.08;11.25;;;10.60;99.90;;;;;;4955947;28;20106;-61
2023/05/06 03:28:29;;;;;;;15.95;11.05;;;10.60;99.90;;;;;;4956620;28;20055;-62
2023/05/06 03:30:56;;;;;;;15.38;11.00;;;10.60;99.90;;;;;;4980044;28;20129;-61
2023/05/06 03:33:23;;;;;;;14.15;10.88;;;10.50;99.90;;;;;;4991678;28;20105;-61
2023/05/06 03:35:50;;;;;;;13.30;9.95;;;10.50;99.90;;;;;;4974916;28;20089;-61
2023/05/06 03:38:17;;;;;;;15.65;11.25;;;10.50;99.90;;;;;;4974709;28;20104;-60
2023/05/06 03:40:45;;;;;;;17.70;12.68;;;10.40;99.90;;;;;;4974084;28;20109;-61
2023/05/06 03:43:12;;;;;;;19.30;12.50;;;10.40;99.90;;;;;;4972895;28;20050;-61
2023/05/06 03:45:38;;;;;;;16.23;12.63;;;10.40;99.90;;;;;;4992011;28;20050;-60
2023/05/06 03:48:06;;;;;;;16.58;12.15;;;10.40;99.90;;;;;;4972149;28;20066;-61
2023/05/06 03:50:33;;;;;;;17.75;12.80;;;10.40;99.90;;;;;;4974249;28;20056;-61
2023/05/06 03:52:59;;;;;;;16.33;12.13;;;10.30;99.90;;;;;;4956500;28;20086;-61
2023/05/06 03:55:26;;;;;;;21.90;13.93;;;10.30;99.90;;;;;;4955572;28;20046;-61
2023/05/06 03:57:55;;;;;;;21.60;12.50;;;10.30;99.90;;;;;;4990292;28;20054;-61
2023/05/06 04:00:22;;;;;;;17.67;11.70;;;10.30;99.90;;;;;;4977690;28;20054;-61
2023/05/06 04:02:49;;;;;;;19.10;12.65;;;10.30;99.90;;;;;;4995902;28;20105;-60
2023/05/06 04:05:16;;;;;;;19.80;13.85;;;10.30;99.90;;;;;;4995584;28;21000;-60
2023/05/06 04:07:42;;;;;;;17.38;12.13;;;10.20;99.90;;;;;;4977753;28;20495;-61
2023/05/06 04:10:10;;;;;;;16.88;11.98;;;10.30;99.90;;;;;;4978088;28;20058;-61
2023/05/06 04:12:37;;;;;;;18.10;12.63;;;10.30;99.90;;;;;;4978555;28;20474;-61
2023/05/06 04:15:06;;;;;;;17.52;11.40;;;10.30;99.90;;;;;;4977598;28;20116;-61
2023/05/06 04:17:33;;;;;;;15.70;11.25;;;10.30;99.90;;;;;;4978320;28;20078;-60
2023/05/06 04:20:05;;;;;;;16.15;9.70;;;10.30;99.90;;;;;;4978008;28;20058;-62
2023/05/06 04:22:32;;;;;;;16.40;11.68;;;10.70;99.90;;;;;;4994752;28;20050;-60
2023/05/06 04:25:00;;;;;;;19.27;12.05;;;10.30;99.90;;;;;;4976046;28;20467;-60
2023/05/06 04:27:28;;;;;;;17.55;11.85;;;10.40;99.90;;;;;;4995398;28;20077;-60
2023/05/06 04:29:55;;;;;;;14.95;12.10;;;10.50;99.90;;;;;;4977352;28;20502;-61
2023/05/06 04:32:24;;;;;;;17.83;12.35;;;10.50;99.90;;;;;;4978183;28;20380;-60
2023/05/06 04:34:51;;;;;;;18.15;11.57;;;10.60;99.90;;;;;;4977934;28;20496;-61
2023/05/06 04:37:18;;;;;;;17.40;11.65;;;10.70;99.90;;;;;;4961325;28;20097;-59
2023/05/06 04:39:46;;;;;;;21.25;12.57;;;10.70;99.90;;;;;;4976729;28;20102;-60
2023/05/06 04:42:13;;;;;;;19.30;13.00;;;10.80;99.90;;;;;;4975800;28;20042;-60
2023/05/06 04:44:40;;;;;;;18.45;13.90;;;10.80;99.90;;;;;;4976707;28;20082;-61
2023/05/06 04:47:07;;;;;;;17.75;12.85;;;10.90;99.90;;;;;;4994984;28;20043;-60
2023/05/06 04:49:35;;;;;;;18.15;13.70;;;11.00;99.90;;;;;;4993986;28;21404;-61
2023/05/06 04:52:02;;;;;;;18.45;11.05;;;11.00;99.90;;;;;;4995177;28;20047;-60
2023/05/06 04:54:29;;;;;;;15.43;12.00;;;11.10;99.90;;;;;;4977628;28;20054;-59
2023/05/06 04:56:55;;;;;;;17.45;12.40;;;11.20;99.90;;;;;;4994485;28;20513;-60
2023/05/06 04:59:22;;;;;;;16.95;12.07;;;11.30;99.90;;;;;;4994567;28;20046;-60
2023/05/06 05:01:49;;;;;;;13.80;10.98;;;11.40;99.90;;;;;;4977463;28;20046;-59
2023/05/06 05:04:16;;;;;;;16.88;11.73;;;11.40;99.90;;;;;;4993875;28;20104;-60
2023/05/06 05:06:44;;;;;;;16.65;11.85;;;11.50;99.90;;;;;;4994825;28;20039;-60
2023/05/06 05:09:11;;;;;;;15.75;11.93;;;11.60;99.90;;;;;;4976979;28;20081;-61
2023/05/06 05:11:38;;;;;;;18.17;12.65;;;11.70;99.90;;;;;;4975994;28;20096;-61
2023/05/06 05:14:05;;;;;;;18.60;11.70;;;11.80;99.90;;;;;;4959039;28;20054;-60
2023/05/06 05:16:32;;;;;;;15.88;12.00;;;11.90;99.90;;;;;;4993386;28;20572;-61
2023/05/06 05:18:59;;;;;;;17.88;12.18;;;11.90;99.90;;;;;;4993904;28;20105;-60
2023/05/06 05:21:26;;;;;;;19.23;12.57;;;12.00;99.90;;;;;;4977077;28;20117;-60
2023/05/06 05:23:54;;;;;;;17.00;11.95;;;12.10;99.90;;;;;;4994152;28;20528;-61
2023/05/06 05:26:21;;;;;;;20.73;12.15;;;12.20;99.90;;;;;;4975972;28;20046;-60
2023/05/06 05:28:48;;;;;;;18.13;11.75;;;12.30;99.90;;;;;;4976917;28;20450;-60
2023/05/06 05:31:15;;;;;;;16.30;12.20;;;12.30;99.90;;;;;;4994308;28;20054;-60
2023/05/06 05:33:42;;;;;;;17.23;11.38;;;12.30;99.90;;;;;;4993479;28;20458;-60
2023/05/06 05:36:11;;;;;;;16.30;11.57;;;12.30;99.90;;;;;;4976748;28;20120;-61
2023/05/06 05:38:38;;;;;;;17.73;12.52;;;12.30;99.90;;;;;;4976129;28;20112;-61
2023/05/06 05:41:06;;;;;;;18.42;11.60;;;12.30;99.90;;;;;;4958552;28;20491;-60
2023/05/06 05:43:33;;;;;;;15.93;11.85;;;12.30;99.90;;;;;;4975912;28;20403;-60
2023/05/06 05:46:00;;;;;;;16.02;11.32;;;12.30;99.90;;;;;;4976072;28;20449;-60
2023/05/06 05:48:26;;;;;;;18.48;12.55;;;12.40;99.90;;;;;;4976721;28;20379;-62
2023/05/06 05:50:53;;;;;;;16.40;11.77;;;12.40;99.90;;;;;;4977389;28;20078;-61
2023/05/06 05:53:23;;;;;;;17.73;11.68;;;12.40;99.90;;;;;;4992816;28;20507;-60
2023/05/06 05:55:50;;;;;;;20.38;12.93;;;12.40;99.90;;;;;;4993769;28;20080;-61
2023/05/06 05:58:18;;;;;;;20.50;12.68;;;12.40;99.90;;;;;;4976277;28;20113;-60
2023/05/06 06:00:45;;;;;;;17.90;12.90;;;12.40;99.90;;;;;;4993108;28;20105;-61
2023/05/06 06:03:12;;;;;;;21.88;13.18;;;12.40;99.90;;;;;;4993880;28;20453;-61
2023/05/06 06:05:39;;;;;;;18.27;13.02;;;12.40;99.90;;;;;;4993659;28;20084;-60
2023/05/06 06:08:06;;;;;;;16.38;11.90;;;12.40;99.90;;;;;;4992919;28;20081;-61
2023/05/06 06:10:33;;;;;;;15.48;11.13;;;12.40;99.90;;;;;;4993287;28;20042;-61
2023/05/06 06:13:00;;;;;;;16.70;11.73;;;12.50;99.90;;;;;;4975194;28;20388;-61
2023/05/06 06:15:28;;;;;;;17.33;11.57;;;12.50;99.90;;;;;;4974697;28;20124;-61
2023/05/06 06:17:55;;;;;;;17.95;11.80;;;12.50;99.90;;;;;;4974465;28;20058;-61
2023/05/06 06:20:22;;;;;;;16.75;12.10;;;12.50;99.90;;;;;;4982126;28;20483;-60
2023/05/06 06:22:48;;;;;;;18.67;13.02;;;12.50;99.90;;;;;;4983902;28;20051;-61
2023/05/06 06:25:15;;;;;;;15.93;11.95;;;12.50;99.90;;;;;;4976607;28;20055;-60
2023/05/06 06:27:42;;;;;;;17.45;11.80;;;12.50;99.90;;;;;;4964513;28;20046;-60
2023/05/06 06:30:10;;;;;;;19.98;12.95;;;12.50;99.90;;;;;;4961102;28;20090;-61
2023/05/06 06:32:49;;;;;;;16.20;11.60;;;12.50;99.90;;;;;;4977694;28;20466;-61
2023/05/06 06:35:16;;;;;;;15.88;10.90;;;12.50;99.90;;;;;;4958559;28;20047;-61
2023/05/06 06:37:43;;;;;;;15.93;12.02;;;12.50;99.90;;;;;;4978685;28;20047;-61
2023/05/06 06:40:11;;;;;;;16.98;12.63;;;12.60;99.90;;;;;;4961495;28;20058;-62
2023/05/06 06:42:38;;;;;;;17.77;11.85;;;12.60;99.90;;;;;;4960399;28;20046;-61
2023/05/06 06:45:06;;;;;;;16.73;11.23;;;12.60;99.90;;;;;;4974458;28;20510;-61
2023/05/06 06:47:33;;;;;;;15.75;11.25;;;12.60;99.90;;;;;;4977116;28;20128;-59
2023/05/06 06:50:01;;;;;;;18.98;11.88;;;12.60;99.90;;;;;;4969900;28;20050;-61
2023/05/06 06:52:28;;;;;;;16.35;12.27;;;12.60;99.90;;;;;;4979574;28;20046;-61
2023/05/06 06:54:55;;;;;;;16.13;12.10;;;12.60;99.90;;;;;;4981373;28;20462;-61
2023/05/06 06:57:22;;;;;;;16.55;11.68;;;12.60;99.90;;;;;;4961548;28;20050;-61
2023/05/06 06:59:50;;;;;;;19.08;11.93;;;12.70;99.90;;;;;;4971109;28;20050;-61
2023/05/06 07:02:17;;;;;;;17.00;12.27;;;12.70;99.90;;;;;;4980722;28;20050;-62
2023/05/06 07:04:44;;;;;;;18.27;12.25;;;12.70;99.90;;;;;;4967522;28;20054;-61
2023/05/06 07:07:12;;;;;;;16.50;11.95;;;12.80;99.90;;;;;;4982282;28;20046;-61
2023/05/06 07:09:39;;;;;;;15.65;11.32;;;12.90;99.90;;;;;;4980360;28;20113;-60
2023/05/06 07:12:07;;;;;;;18.30;12.43;;;12.90;99.90;;;;;;4982376;28;20082;-61
2023/05/06 07:14:33;;;;;;;18.13;13.20;;;13.00;99.90;;;;;;4966195;28;20050;-60
2023/05/06 07:17:00;;;;;;;17.58;11.43;;;13.10;99.90;;;;;;4977595;28;20144;-61
2023/05/06 07:19:27;;;;;;;16.77;12.32;;;13.10;99.90;;;;;;4966575;28;20109;-61
2023/05/06 07:21:55;;;;;;;15.73;11.27;;;13.10;99.90;;;;;;4968223;28;20461;-60
2023/05/06 07:24:23;;;;;;;16.80;11.68;;;13.10;99.90;;;;;;4965184;28;20126;-60
2023/05/06 07:26:50;;;;;;;14.60;11.32;;;13.20;99.90;;;;;;4982871;28;20376;-60
2023/05/06 07:29:17;;;;;;;16.00;10.95;;;13.20;99.90;;;;;;4964688;28;20059;-60
2023/05/06 07:31:44;;;;;;;15.63;11.65;;;13.30;99.90;;;;;;4963587;28;20507;-60
2023/05/06 07:34:11;;;;;;;13.95;10.95;;;13.40;99.90;;;;;;4987518;28;20499;-61
2023/05/06 07:36:41;;;;;;;16.60;11.23;;;13.40;99.90;;;;;;4985327;28;20569;-61
2023/05/06 07:39:09;;;;;;;19.50;12.45;;;13.50;99.90;;;;;;4972027;28;20482;-61
2023/05/06 07:41:37;;;;;;;19.58;12.75;;;13.60;99.90;;;;;;4978125;28;20066;-61
2023/05/06 07:44:05;;;;;;;19.55;12.60;;;13.60;99.90;;;;;;4987844;28;20050;-61
2023/05/06 07:46:32;;;;;;;17.48;12.73;;;13.70;99.90;;;;;;4988355;28;20101;-62
2023/05/06 07:48:58;;;;;;;14.23;10.32;;;13.90;99.90;;;;;;4967059;28;20101;-60
2023/05/06 07:51:25;;;;;;;14.73;10.38;;;14.10;99.90;;;;;;4992064;28;20556;-60
2023/05/06 07:53:52;;;;;;;15.88;10.70;;;14.30;99.90;;;;;;4981620;28;20053;-62
2023/05/06 07:56:19;;;;;;;15.98;10.98;;;14.60;99.90;;;;;;4971826;28;20058;-61
2023/05/06 07:58:48;;;;;;;15.25;11.05;;;14.60;99.90;;;;;;4963795;28;20042;-60
2023/05/06 08:01:16;;;;;;;20.08;11.75;;;14.80;99.90;;;;;;4984242;28;20501;-61
2023/05/06 08:03:43;;;;;;;14.55;10.75;;;15.10;99.90;;;;;;4963264;28;20074;-61
2023/05/06 08:06:09;;;;;;;17.23;10.88;;;15.20;99.90;;;;;;4972018;28;20058;-62
2023/05/06 08:08:36;;;;;;;13.07;10.13;;;15.40;99.90;;;;;;4978946;28;20081;-61
2023/05/06 08:11:03;;;;;;;14.32;10.30;;;15.70;99.90;;;;;;4974356;28;20122;-60
2023/05/06 08:13:32;;;;;;;13.88;10.05;;;16.00;99.90;;;;;;4963519;28;20059;-61
2023/05/06 08:16:01;;;;;;;12.00;8.88;;;16.40;99.90;;;;;;4984358;28;20047;-61
2023/05/06 08:18:28;;;;;;;14.25;10.15;;;16.60;99.90;;;;;;4965362;28;20059;-59
2023/05/06 08:20:55;;;;;;;13.40;9.43;;;17.10;99.90;;;;;;4982873;28;20046;-61
2023/05/06 08:23:22;;;;;;;12.63;9.00;;;17.90;99.90;;;;;;4982449;28;20572;-60
2023/05/06 08:25:49;;;;;;;14.40;9.25;;;18.90;99.90;;;;;;4983880;28;20101;-61
2023/05/06 08:28:16;;;;;;;10.75;8.43;;;19.40;99.90;;;;;;4985966;28;20468;-61
2023/05/06 08:30:46;;;;;;;8.88;6.60;;;20.10;99.90;;;;;;4971479;28;20384;-60
2023/05/06 08:33:14;;;;;;;9.32;7.50;;;20.90;99.90;;;;;;4986919;28;20101;-61
2023/05/06 08:35:41;;;;;;;9.18;7.82;;;21.40;99.90;;;;;;4984395;28;20051;-61
2023/05/06 08:38:08;;;;;;;9.55;8.00;;;21.40;99.90;;;;;;4985831;28;20089;-61
2023/05/06 08:40:38;;;;;;;10.52;7.90;;;21.90;99.90;;;;;;4969767;28;20062;-62
2023/05/06 08:43:04;;;;;;;;;;;22.20;99.90;;;;;;4989287;28;20121;-61
2023/05/06 08:45:32;;;;;;;8.50;6.55;;;22.40;99.90;;;;;;4979860;28;19926;-61
2023/05/06 08:48:00;;;;;;;8.95;6.28;;;23.00;99.90;;;;;;4981480;28;20133;-62
2023/05/06 08:50:28;;;;;;;7.07;6.10;;;23.40;99.90;;;;;;4979773;28;20057;-60
2023/05/06 08:52:55;;;;;;;8.35;4.95;;;24.00;99.90;;;;;;4967565;28;20223;-61
2023/05/06 08:55:24;;;;;;;7.20;4.55;;;24.80;99.90;;;;;;4977674;28;20046;-61
2023/05/06 08:57:52;;;;;;;5.97;4.72;;;24.70;99.90;;;;;;4983401;28;20054;-61
2023/05/06 09:00:20;;;;;;;5.82;4.75;;;24.40;99.90;;;;;;4978077;28;20047;-61
2023/05/06 09:02:46;;;;;;;5.72;3.92;;;24.60;99.90;;;;;;4982413;28;20054;-61
2023/05/06 09:05:13;;;;;;;6.28;4.68;;;24.80;99.90;;;;;;4960618;28;20117;-62
2023/05/06 09:07:41;;;;;;;6.07;4.40;;;24.60;98.80;;;;;;4963830;28;20058;-61
2023/05/06 09:10:13;;;;;;;5.85;4.30;;;24.50;98.60;;;;;;4963643;28;20368;-61
2023/05/06 09:12:40;;;;;;;4.93;3.85;;;24.70;98.70;;;;;;4966126;28;20108;-63
2023/05/06 09:15:08;;;;;;;6.53;4.50;;;25.00;98.30;;;;;;4987246;28;20517;-61
2023/05/06 09:17:36;;;;;;;5.70;4.90;;;25.20;97.40;;;;;;4980345;28;20448;-62
2023/05/06 09:20:05;;;;;;;6.25;5.22;;;25.30;97.30;;;;;;4985655;28;20439;-61
2023/05/06 09:22:32;;;;;;;6.97;4.57;;;25.60;96.90;;;;;;4978245;28;20046;-62
2023/05/06 09:25:00;;;;;;;7.55;5.13;;;25.80;97.30;;;;;;4981545;28;20058;-61
2023/05/06 09:27:29;;;;;;;7.10;4.93;;;25.60;97.00;;;;;;4976463;28;20078;-62
2023/05/06 09:30:04;;;;;;;6.88;5.00;;;25.70;96.40;;;;;;4974315;28;20054;-62
2023/05/06 09:32:31;;;;;;;5.40;4.18;;;26.00;94.70;;;;;;4993016;28;20050;-61
2023/05/06 09:34:58;;;;;;;6.40;5.05;;;26.20;95.60;;;;;;4994189;28;20097;-62
2023/05/06 09:37:26;;;;;;;6.45;4.90;;;26.00;93.20;;;;;;4993815;28;20497;-61
2023/05/06 09:39:54;;;;;;;6.53;5.20;;;26.10;94.70;;;;;;4975646;28;20479;-61
2023/05/06 09:42:24;;;;;;;6.55;5.10;;;26.30;93.60;;;;;;4975763;28;20048;-62
2023/05/06 09:44:53;;;;;;;7.43;5.25;;;26.20;92.70;;;;;;4958155;28;20051;-63
2023/05/06 09:47:21;;;;;;;6.28;4.70;;;26.20;93.80;;;;;;4975557;28;20427;-62
2023/05/06 09:49:48;;;;;;;5.22;4.70;;;26.20;93.70;;;;;;4974473;28;20057;-62
2023/05/06 09:52:16;;;;;;;6.60;5.32;;;26.50;93.70;;;;;;4975718;28;20050;-62
2023/05/06 09:54:45;;;;;;;5.97;5.30;;;26.80;93.30;;;;;;4993920;28;20100;-62
2023/05/06 09:57:15;;;;;;;6.57;5.40;;;26.60;93.20;;;;;;4976040;28;20051;-62
2023/05/06 09:59:45;;;;;;;6.60;5.72;;;26.10;93.50;;;;;;4992805;28;20153;-61
2023/05/06 10:02:13;;;;;;;7.43;6.03;;;25.70;93.60;;;;;;4993819;28;20046;-62
2023/05/06 10:04:41;;;;;;;7.78;5.95;;;24.70;95.00;;;;;;4976096;28;20060;-61
2023/05/06 10:07:10;;;;;;;7.13;5.93;;;24.10;96.10;;;;;;4975543;28;20495;-62
2023/05/06 10:09:39;;;;;;;6.63;5.80;;;24.50;95.90;;;;;;4993497;28;20461;-63
2023/05/06 10:12:07;;;;;;;11.10;5.97;;;25.10;95.30;;;;;;4975917;28;20112;-60
2023/05/06 10:14:34;;;;;;;9.40;6.47;;;25.30;94.60;;;;;;4975312;28;20057;-62
2023/05/06 10:17:06;;;;;;;8.55;6.15;;;25.30;94.80;;;;;;4993412;28;20117;-61
2023/05/06 10:19:33;;;;;;;7.10;6.38;;;25.30;94.50;;;;;;4974866;28;20046;-62
2023/05/06 10:22:07;;;;;;;8.10;5.93;;;25.60;94.40;;;;;;4974534;28;20043;-62
2023/05/06 10:24:46;;;;;;;6.75;5.60;;;25.90;94.40;;;;;;4974786;28;20054;-61
2023/05/06 10:27:18;;;;;;;8.45;4.60;;;26.10;94.10;;;;;;4974736;28;20057;-61
2023/05/06 10:29:45;;;;;;;5.78;5.03;;;26.70;93.50;;;;;;4991482;28;20038;-61
2023/05/06 10:32:13;;;;;;;9.05;4.28;;;27.00;93.30;;;;;;4973766;28;20057;-62
2023/05/06 10:34:46;;;;;;;5.82;4.95;;;26.90;92.30;;;;;;4992122;28;20093;-61
2023/05/06 10:37:14;;;;;;;5.80;5.15;;;26.10;92.20;;;;;;4993013;28;20108;-62
2023/05/06 10:39:42;;;;;;;6.95;4.97;;;25.60;92.60;;;;;;4990802;28;20042;-62
2023/05/06 10:42:10;;;;;;;7.20;4.65;;;25.20;93.40;;;;;;4978760;28;20054;-62
2023/05/06 10:44:56;;;;;;;7.13;4.28;;;24.70;94.40;;;;;;4977767;28;20047;-62
2023/05/06 10:47:24;;;;;;;8.07;6.38;;;25.00;93.90;;;;;;4989660;28;20101;-62
2023/05/06 10:50:23;;;;;;;6.35;4.60;;;25.20;95.10;;;;;;4984643;28;20050;-61
2023/05/06 10:52:52;;;;;;;9.32;6.18;;;25.80;94.10;;;;;;4960331;28;20101;-61
2023/05/06 10:55:26;;;;;;;8.50;6.30;;;26.50;93.40;;;;;;4961602;28;20065;-61
2023/05/06 10:57:55;;;;;;;11.77;6.07;;;26.70;91.80;;;;;;4977586;28;20098;-62
2023/05/06 11:00:22;;;;;;;9.68;6.43;;;26.90;92.20;;;;;;4981199;28;20057;-62
2023/05/06 11:02:55;;;;;;;12.80;6.28;;;26.70;92.00;;;;;;4958713;28;20155;-61
2023/05/06 11:05:23;;;;;;;7.25;5.88;;;26.20;91.70;;;;;;4981970;28;20077;-62
2023/05/06 11:07:51;;;;;;;8.07;5.97;;;25.50;92.30;;;;;;4958686;28;20098;-62
2023/05/06 11:10:32;;;;;;;6.82;5.15;;;25.10;92.60;;;;;;4987241;28;20311;-62
2023/05/06 11:13:17;;;;;;;8.40;5.75;;;24.20;93.30;;;;;;4968228;28;20100;-63
2023/05/06 11:15:45;;;;;;;6.53;5.13;;;23.90;94.20;;;;;;4958603;28;20125;-62
2023/05/06 11:18:47;;;;;;;6.45;5.50;;;23.70;95.20;;;;;;4977809;28;20049;-62
2023/05/06 11:21:38;;;;;;;6.60;5.68;;;23.40;95.40;;;;;;4975722;28;20105;-62
2023/05/06 11:24:13;;;;;;;6.95;5.40;;;23.30;96.10;;;;;;4961701;28;20106;-62
2023/05/06 11:26:41;;;;;;;8.45;5.45;;;23.20;94.90;;;;;;4960771;28;20133;-61
2023/05/06 11:29:08;;;;;;;7.35;5.38;;;23.00;95.60;;;;;;4980262;28;20300;-62
2023/05/06 11:31:39;;;;;;;6.70;5.07;;;23.00;95.40;;;;;;4976263;28;20105;-62
2023/05/06 11:34:13;;;;;;;8.90;6.15;;;22.60;95.50;;;;;;4984148;28;20109;-62
2023/05/06 11:36:53;;;;;;;8.45;5.68;;;22.50;94.90;;;;;;4980128;28;20520;-61
2023/05/06 11:39:20;;;;;;;8.05;6.10;;;22.20;95.40;;;;;;4973756;28;20061;-62
2023/05/06 11:41:47;;;;;;;9.18;5.78;;;21.90;95.60;;;;;;4982243;28;20057;-61
2023/05/06 11:44:25;;;;;;;9.40;6.18;;;21.60;96.50;;;;;;4959695;28;20113;-61
2023/05/06 11:46:55;;;;;;;9.15;6.32;;;21.50;97.10;;;;;;4975351;28;20089;-61
2023/05/06 11:49:24;;;;;;;10.27;5.45;;;21.30;96.80;;;;;;4978783;28;20078;-61
2023/05/06 11:51:51;;;;;;;17.17;4.85;;;21.10;97.60;;;;;;4975811;28;20059;-62
2023/05/06 11:54:21;;;;;;;7.07;6.22;;;21.00;98.90;;;;;;4974442;28;20193;-62
2023/05/06 11:56:49;;;;;;;;;;;20.80;99.70;;;;;;4970592;28;20059;-61
2023/05/06 11:59:17;;;;;;;8.95;6.57;;;20.60;99.90;;;;;;4954624;28;19973;-67
2023/05/06 12:09:01;;;;;;;11.88;7.65;;;19.80;99.90;;;;;;4982963;28;20510;-68
2023/05/06 12:11:28;;;;;;;11.85;7.72;;;19.30;99.90;;;;;;4960650;28;20395;-68
2023/05/06 12:13:55;;;;;;;11.52;7.93;;;19.00;99.90;;;;;;4971739;28;20082;-69
2023/05/06 12:16:24;;;;;;;9.93;8.25;;;18.70;99.90;;;;;;4982278;28;20097;-68
2023/05/06 12:18:53;;;;;;;11.77;7.85;;;18.20;99.90;;;;;;4967901;28;20047;-68
2023/05/06 12:21:23;;;;;;;10.07;7.80;;;18.00;99.90;;;;;;4963781;28;20058;-70
2023/05/06 12:23:51;;;;;;;12.13;7.45;;;17.80;99.90;;;;;;4983883;28;20106;-69
2023/05/06 12:29:54;;;;;;;12.27;8.45;;;17.10;99.90;;;;;;4962304;28;20074;-73
2023/05/06 12:36:07;;;;;;;15.52;10.75;;;16.60;99.90;;;;;;4982894;28;20049;-72
2023/05/06 12:38:34;;;;;;;16.67;10.43;;;16.50;99.90;;;;;;4961000;28;20050;-72
2023/05/06 12:41:02;;;;;;;13.23;9.95;;;16.30;99.90;;;;;;4964985;28;20537;-72
2023/05/06 12:43:31;;;;;;;13.90;10.10;;;16.30;99.90;;;;;;4965857;28;20418;-72
2023/05/06 12:46:06;;;;;;;13.55;9.60;;;16.30;99.90;;;;;;4971768;28;20054;-71
2023/05/06 12:48:33;;;;;;;18.73;9.63;;;16.20;99.90;;;;;;4961743;28;20498;-72
2023/05/06 12:51:00;;;;;;;12.70;8.63;;;16.30;99.90;;;;;;4961474;28;20122;-72
2023/05/06 12:53:34;;;;;;;11.60;8.90;;;16.40;99.90;;;;;;4968644;28;20077;-72